Time;durP1;ratioP1;P1;durP2;ratioP2;P2;SDS_P1;SDS_P2;PMS_P1;PMS_P2;Temp;Humidity;BMP_temperature;BMP_pressure;BME280_temperature;BME280_humidity;BME280_pressure;Samples;Min_cycle;Max_cycle;Signal;HPM_P1;HPM_P2
2022/05/23 00:02:00;;;;;;;5.85;2.85;;;15.10;89.60;;;;;;5032737;28;20154;-44
2022/05/23 00:04:26;;;;;;;7.05;2.88;;;15.00;88.70;;;;;;5045798;28;20448;-45
2022/05/23 00:06:54;;;;;;;6.30;3.00;;;15.00;88.30;;;;;;5052319;28;20047;-44
2022/05/23 00:09:20;;;;;;;7.82;2.85;;;15.00;88.30;;;;;;5052148;28;20021;-42
2022/05/23 00:11:46;;;;;;;5.15;2.92;;;15.00;88.60;;;;;;5052154;28;20462;-42
2022/05/23 00:14:13;;;;;;;7.72;3.83;;;14.90;88.40;;;;;;5040525;28;20679;-47
2022/05/23 00:16:41;;;;;;;8.10;3.30;;;14.90;89.10;;;;;;5047467;28;20392;-41
2022/05/23 00:19:09;;;;;;;7.90;2.90;;;14.90;88.80;;;;;;5032279;28;20033;-41
2022/05/23 00:21:35;;;;;;;6.65;3.00;;;14.90;89.50;;;;;;5032101;28;20029;-42
2022/05/23 00:24:01;;;;;;;7.35;3.08;;;14.90;89.70;;;;;;5040938;28;20392;-42
2022/05/23 00:26:27;;;;;;;7.18;3.45;;;14.80;89.90;;;;;;5051937;28;20044;-43
2022/05/23 00:28:53;;;;;;;6.45;3.10;;;14.80;90.60;;;;;;5051901;28;20474;-44
2022/05/23 00:31:18;;;;;;;7.18;3.22;;;14.80;90.60;;;;;;5052103;28;20511;-45
2022/05/23 00:36:30;;;;;;;7.07;3.30;;;14.80;91.10;;;;;;5031955;28;20049;-44
2022/05/23 00:38:56;;;;;;;7.28;3.33;;;14.80;91.30;;;;;;5031889;28;20104;-45
2022/05/23 00:44:26;;;;;;;7.88;3.67;;;14.80;91.40;;;;;;5044310;28;20401;-47
2022/05/23 00:47:16;;;;;;;8.40;3.40;;;14.80;91.70;;;;;;5035493;28;20072;-47
2022/05/23 00:49:42;;;;;;;9.13;3.45;;;14.80;92.10;;;;;;5025306;28;20049;-52
2022/05/23 00:52:12;;;;;;;9.30;3.63;;;14.80;91.90;;;;;;5031361;28;20417;-45
2022/05/23 00:54:46;;;;;;;7.07;3.40;;;14.70;92.00;;;;;;5045816;28;20044;-44
2022/05/23 00:57:16;;;;;;;8.90;3.53;;;14.70;91.40;;;;;;5051318;28;20112;-43
2022/05/23 00:59:42;;;;;;;7.63;3.83;;;14.60;91.90;;;;;;5051271;28;20040;-46
2022/05/23 01:02:11;;;;;;;7.60;3.42;;;14.60;92.00;;;;;;5051294;28;20032;-47
2022/05/23 01:04:38;;;;;;;6.57;3.45;;;14.70;92.20;;;;;;5037016;28;20022;-42
2022/05/23 01:07:04;;;;;;;7.45;3.65;;;14.70;92.50;;;;;;5031265;28;20038;-50
2022/05/23 01:09:30;;;;;;;8.90;3.83;;;14.70;93.00;;;;;;5031321;28;20026;-44
2022/05/23 01:11:58;;;;;;;7.65;3.92;;;14.70;93.10;;;;;;5031219;28;20047;-42
2022/05/23 01:14:24;;;;;;;8.07;4.00;;;14.70;93.30;;;;;;5043135;28;20067;-47
2022/05/23 01:16:50;;;;;;;8.50;4.30;;;14.60;92.80;;;;;;5051087;28;20029;-44
2022/05/23 01:19:16;;;;;;;11.40;3.80;;;14.60;93.00;;;;;;5051298;28;20062;-48
2022/05/23 01:21:48;;;;;;;7.18;3.53;;;14.60;93.40;;;;;;5050442;28;20033;-46
2022/05/23 01:24:25;;;;;;;7.75;3.63;;;14.50;93.50;;;;;;5040333;28;20047;-47
2022/05/23 01:26:53;;;;;;;7.45;3.60;;;14.60;93.30;;;;;;5030990;28;20045;-48
2022/05/23 01:29:19;;;;;;;9.60;4.13;;;14.50;93.60;;;;;;5031174;28;20026;-46
2022/05/23 01:31:45;;;;;;;8.88;4.25;;;14.50;93.80;;;;;;5031028;28;20048;-44
2022/05/23 01:34:10;;;;;;;7.35;4.05;;;14.50;94.20;;;;;;5040380;28;20021;-44
2022/05/23 01:36:36;;;;;;;12.60;4.55;;;14.50;94.60;;;;;;5050895;28;20116;-45
2022/05/23 01:39:02;;;;;;;9.80;4.45;;;14.50;94.30;;;;;;5050772;28;20469;-47
2022/05/23 01:41:27;;;;;;;7.43;3.38;;;14.50;94.20;;;;;;5050844;28;20501;-47
2022/05/23 01:43:53;;;;;;;8.35;4.55;;;14.50;94.30;;;;;;5043631;28;20018;-44
2022/05/23 01:46:20;;;;;;;9.77;3.90;;;14.40;93.50;;;;;;5030807;28;20522;-42
2022/05/23 01:48:46;;;;;;;8.27;4.10;;;14.40;93.60;;;;;;5030752;28;20517;-42
2022/05/23 01:51:12;;;;;;;7.78;3.88;;;14.30;93.60;;;;;;5030747;28;20022;-43
2022/05/23 01:53:38;;;;;;;9.50;4.40;;;14.30;93.90;;;;;;5035279;28;20480;-46
2022/05/23 01:56:04;;;;;;;6.90;4.28;;;14.30;94.10;;;;;;5050618;28;20053;-52
2022/05/23 02:01:15;;;;;;;6.97;4.40;;;14.30;94.00;;;;;;5050609;28;20036;-45
2022/05/23 02:03:43;;;;;;;7.30;4.50;;;14.30;94.10;;;;;;5045651;28;20025;-52
2022/05/23 02:06:09;;;;;;;6.82;4.22;;;14.30;93.90;;;;;;5030661;28;20033;-49
2022/05/23 02:08:35;;;;;;;9.05;4.38;;;14.20;93.90;;;;;;5030801;28;20109;-43
2022/05/23 02:11:00;;;;;;;7.03;4.35;;;14.20;93.90;;;;;;5046023;28;20101;-55
2022/05/23 02:13:26;;;;;;;6.97;4.20;;;14.20;94.30;;;;;;5033104;28;20397;-44
2022/05/23 02:15:52;;;;;;;12.38;4.65;;;14.10;94.30;;;;;;5050551;28;20021;-43
2022/05/23 02:18:17;;;;;;;10.52;4.35;;;14.10;94.40;;;;;;5050601;28;20393;-46
2022/05/23 02:20:43;;;;;;;8.50;4.30;;;14.00;94.50;;;;;;5050382;28;20379;-42
2022/05/23 02:23:08;;;;;;;7.90;4.63;;;14.00;94.40;;;;;;5050112;28;20087;-44
2022/05/23 02:25:35;;;;;;;9.18;4.60;;;14.00;94.50;;;;;;5031752;28;20083;-45
2022/05/23 02:28:01;;;;;;;9.07;4.82;;;14.00;94.60;;;;;;5030451;28;20038;-53
2022/05/23 02:30:26;;;;;;;8.02;4.50;;;14.00;94.60;;;;;;5030538;28;20088;-43
2022/05/23 02:32:52;;;;;;;8.95;4.63;;;14.00;94.80;;;;;;5030524;28;20059;-47
2022/05/23 02:35:18;;;;;;;8.07;4.78;;;14.00;94.70;;;;;;5051083;28;20025;-44
2022/05/23 02:37:45;;;;;;;8.77;5.07;;;14.00;94.60;;;;;;5054080;28;20083;-57
2022/05/23 02:40:11;;;;;;;10.38;5.68;;;14.00;94.60;;;;;;5054049;28;20108;-51
2022/05/23 02:42:37;;;;;;;10.77;4.93;;;14.10;94.80;;;;;;5053972;28;20021;-45
2022/05/23 02:45:06;;;;;;;8.10;4.88;;;14.10;95.10;;;;;;5038424;28;20032;-55
2022/05/23 02:47:32;;;;;;;9.38;4.88;;;14.10;95.00;;;;;;5033978;28;20120;-49
2022/05/23 02:49:58;;;;;;;7.90;5.18;;;13.90;94.80;;;;;;5033745;28;20124;-49
2022/05/23 02:52:24;;;;;;;6.43;4.47;;;13.90;95.00;;;;;;5033854;28;20128;-42
2022/05/23 02:54:50;;;;;;;10.38;5.43;;;13.80;95.10;;;;;;5046864;28;20417;-47
2022/05/23 02:57:15;;;;;;;9.90;5.78;;;13.70;95.20;;;;;;5053786;28;20108;-42
2022/05/23 02:59:41;;;;;;;10.73;5.20;;;13.60;95.30;;;;;;5053600;28;20482;-46
2022/05/23 03:04:51;;;;;;;11.88;5.78;;;13.70;95.40;;;;;;5040333;28;20040;-44
2022/05/23 03:07:16;;;;;;;9.68;5.10;;;13.70;95.50;;;;;;5033572;28;20108;-46
2022/05/23 03:09:44;;;;;;;13.07;5.85;;;13.70;95.40;;;;;;5033391;28;20096;-49
2022/05/23 03:12:10;;;;;;;7.43;5.00;;;13.80;95.80;;;;;;5033574;28;20033;-44
2022/05/23 03:14:36;;;;;;;6.78;5.00;;;13.80;95.90;;;;;;5044187;28;20021;-49
2022/05/23 03:17:06;;;;;;;10.27;5.53;;;13.90;95.90;;;;;;5053306;28;20033;-48
2022/05/23 03:19:36;;;;;;;12.50;5.93;;;14.00;95.90;;;;;;5053292;28;20021;-44
2022/05/23 03:27:29;;;;;;;9.88;4.97;;;14.10;95.60;;;;;;5033105;28;20072;-41
2022/05/23 03:29:55;;;;;;;7.68;5.68;;;14.10;95.70;;;;;;5033456;28;20386;-41
2022/05/23 03:32:21;;;;;;;10.50;5.75;;;14.10;95.80;;;;;;5033281;28;20025;-41
2022/05/23 03:34:47;;;;;;;9.38;5.38;;;14.10;95.50;;;;;;5034316;28;20033;-41
2022/05/23 03:37:13;;;;;;;8.60;5.45;;;14.20;95.60;;;;;;5034969;28;20402;-43
2022/05/23 03:39:39;;;;;;;7.85;5.22;;;14.20;95.60;;;;;;5032951;28;20030;-42
2022/05/23 03:42:06;;;;;;;7.68;4.90;;;14.20;95.60;;;;;;5032915;28;20044;-44
2022/05/23 03:44:32;;;;;;;8.38;5.50;;;14.10;95.90;;;;;;5042017;28;20091;-45
2022/05/23 03:46:57;;;;;;;9.48;5.97;;;14.10;95.60;;;;;;5052752;28;20120;-42
2022/05/23 03:49:23;;;;;;;8.52;6.00;;;14.10;95.80;;;;;;5052573;28;20125;-51
2022/05/23 03:51:49;;;;;;;14.27;6.18;;;14.10;95.60;;;;;;5052606;28;20440;-51
2022/05/23 03:54:15;;;;;;;10.57;5.68;;;14.00;95.50;;;;;;5041536;28;20387;-45
2022/05/23 03:56:40;;;;;;;10.35;6.45;;;14.00;95.40;;;;;;5012356;28;20029;-45
2022/05/23 03:59:06;;;;;;;10.85;7.38;;;13.90;95.80;;;;;;5012702;28;20389;-43
2022/05/23 04:01:32;;;;;;;14.20;6.57;;;13.80;95.50;;;;;;5012730;28;20030;-53
2022/05/23 04:03:58;;;;;;;11.13;6.82;;;13.90;95.80;;;;;;5022521;28;20092;-44
2022/05/23 04:06:24;;;;;;;10.18;6.82;;;13.90;95.90;;;;;;5052315;28;20504;-45
2022/05/23 04:08:50;;;;;;;9.05;6.78;;;13.90;95.90;;;;;;5052208;28;20028;-46
2022/05/23 04:11:16;;;;;;;9.57;6.10;;;13.90;95.40;;;;;;5052239;28;20112;-50
2022/05/23 04:13:42;;;;;;;13.48;7.00;;;13.90;95.20;;;;;;5048502;28;20134;-44
2022/05/23 04:16:08;;;;;;;10.32;6.63;;;13.90;95.30;;;;;;5032423;28;20100;-42
2022/05/23 04:18:36;;;;;;;11.95;7.15;;;13.80;95.60;;;;;;5032369;28;20234;-52
2022/05/23 04:21:02;;;;;;;11.50;7.30;;;13.80;95.70;;;;;;5032421;28;20032;-47
2022/05/23 04:23:29;;;;;;;10.35;7.18;;;13.90;95.70;;;;;;5032020;28;20075;-46
2022/05/23 04:25:54;;;;;;;9.77;7.15;;;13.90;96.00;;;;;;5051847;28;20071;-43
2022/05/23 04:28:20;;;;;;;13.45;8.10;;;13.90;96.00;;;;;;5051953;28;20033;-54
2022/05/23 04:30:46;;;;;;;11.93;7.75;;;13.90;96.10;;;;;;5051965;28;20032;-47
2022/05/23 04:35:57;;;;;;;10.65;7.38;;;14.00;96.00;;;;;;5012495;28;20125;-52
2022/05/23 04:38:23;;;;;;;11.48;7.78;;;13.90;95.90;;;;;;5041324;28;20474;-43
2022/05/23 04:40:49;;;;;;;10.40;7.68;;;13.90;96.40;;;;;;5051740;28;20043;-42
2022/05/23 04:43:15;;;;;;;12.35;8.02;;;13.90;96.40;;;;;;5051593;28;20029;-48
2022/05/23 04:45:41;;;;;;;11.35;7.57;;;14.00;96.20;;;;;;5050535;28;20048;-45
2022/05/23 04:50:52;;;;;;;11.95;7.80;;;14.00;96.00;;;;;;5051684;28;20063;-52
2022/05/23 04:53:18;;;;;;;12.23;7.55;;;13.90;95.70;;;;;;5051410;28;20025;-50
2022/05/23 04:55:43;;;;;;;13.15;7.55;;;13.90;95.80;;;;;;5049986;28;20030;-50
2022/05/23 04:58:11;;;;;;;9.98;6.90;;;13.90;96.00;;;;;;5043384;28;20037;-47
2022/05/23 05:00:39;;;;;;;11.15;7.80;;;13.90;96.00;;;;;;5031212;28;20025;-46
2022/05/23 05:03:05;;;;;;;10.23;6.80;;;13.90;96.20;;;;;;5031423;28;20025;-49
2022/05/23 05:05:33;;;;;;;10.70;7.22;;;14.00;96.30;;;;;;5031385;28;20037;-44
2022/05/23 05:07:59;;;;;;;13.05;7.32;;;14.00;96.50;;;;;;5037120;28;20124;-50
2022/05/23 05:10:26;;;;;;;10.88;7.68;;;14.00;96.40;;;;;;5051250;28;20032;-50
2022/05/23 05:12:53;;;;;;;9.00;7.03;;;14.00;96.30;;;;;;5048856;28;20037;-49
2022/05/23 05:15:19;;;;;;;11.90;7.40;;;14.00;96.30;;;;;;5023591;28;20045;-50
2022/05/23 05:17:44;;;;;;;15.57;7.80;;;14.00;96.40;;;;;;5021637;28;20029;-44
2022/05/23 05:20:12;;;;;;;12.38;7.07;;;14.00;96.10;;;;;;5016820;28;20032;-45
2022/05/23 05:22:38;;;;;;;12.48;7.63;;;14.00;96.40;;;;;;5026411;28;20053;-43
2022/05/23 05:25:06;;;;;;;11.10;7.57;;;14.00;96.20;;;;;;5030187;28;20067;-53
2022/05/23 05:27:32;;;;;;;13.77;8.40;;;14.10;96.00;;;;;;5040711;28;20502;-43
2022/05/23 05:29:59;;;;;;;11.45;8.15;;;14.00;96.10;;;;;;5050998;28;20025;-53
2022/05/23 05:32:33;;;;;;;11.20;8.75;;;14.10;96.00;;;;;;5050978;28;20025;-40
2022/05/23 05:35:21;;;;;;;12.15;8.45;;;14.10;95.20;;;;;;5031103;28;20021;-51
2022/05/23 05:38:02;;;;;;;13.63;8.60;;;14.00;95.60;;;;;;5034456;28;20039;-47
2022/05/23 05:40:31;;;;;;;15.35;9.45;;;14.00;96.10;;;;;;5050842;28;20043;-50
2022/05/23 05:43:01;;;;;;;13.40;8.75;;;14.00;96.00;;;;;;5049254;28;20052;-44
2022/05/23 05:45:32;;;;;;;13.25;8.75;;;14.00;96.10;;;;;;5031113;28;20038;-49
2022/05/23 05:47:58;;;;;;;12.73;8.63;;;13.90;96.00;;;;;;5035422;28;20039;-45
2022/05/23 05:50:28;;;;;;;12.77;8.73;;;13.90;96.10;;;;;;5050670;28;20045;-41
2022/05/23 05:52:58;;;;;;;12.75;8.00;;;14.00;96.10;;;;;;5050851;28;20513;-43
2022/05/23 05:55:24;;;;;;;12.25;7.75;;;13.90;95.60;;;;;;5050681;28;20381;-41
2022/05/23 05:57:50;;;;;;;12.57;7.72;;;13.90;95.80;;;;;;5037598;28;20104;-49
2022/05/23 06:00:16;;;;;;;13.90;7.50;;;13.90;95.80;;;;;;5019098;28;20034;-44
2022/05/23 06:02:42;;;;;;;12.50;7.10;;;13.90;96.00;;;;;;5019918;28;20026;-48
2022/05/23 06:05:08;;;;;;;10.35;7.18;;;13.90;96.00;;;;;;5011620;28;20022;-44
2022/05/23 06:13:03;;;;;;;11.35;7.22;;;13.90;96.00;;;;;;5032569;28;20498;-55
2022/05/23 06:15:28;;;;;;;10.88;6.15;;;13.90;96.20;;;;;;5032672;28;20021;-48
2022/05/23 06:17:54;;;;;;;10.13;7.00;;;13.90;96.20;;;;;;5031937;28;20035;-49
2022/05/23 06:20:20;;;;;;;10.38;5.72;;;14.00;96.10;;;;;;5032017;28;20402;-49
2022/05/23 06:22:46;;;;;;;10.05;6.15;;;14.00;95.70;;;;;;5032129;28;20108;-41
2022/05/23 06:25:15;;;;;;;9.27;6.53;;;14.00;95.90;;;;;;5032274;28;20040;-54
2022/05/23 06:27:41;;;;;;;8.88;5.70;;;14.00;96.00;;;;;;5032483;28;20037;-52
2022/05/23 06:30:10;;;;;;;7.53;5.68;;;14.10;96.10;;;;;;5032543;28;20040;-51
2022/05/23 06:32:36;;;;;;;9.75;5.90;;;14.10;96.30;;;;;;5033969;28;20533;-53
2022/05/23 06:35:01;;;;;;;9.93;6.03;;;14.10;96.10;;;;;;5034091;28;20029;-49
2022/05/23 06:37:27;;;;;;;11.07;6.38;;;14.10;96.20;;;;;;5034094;28;20032;-48
2022/05/23 06:39:53;;;;;;;8.20;5.55;;;14.10;95.70;;;;;;5034398;28;20044;-40
2022/05/23 06:42:19;;;;;;;10.07;5.85;;;14.10;95.70;;;;;;5033607;28;20037;-40
2022/05/23 06:44:44;;;;;;;13.95;5.75;;;14.20;96.00;;;;;;5034021;28;20487;-40
2022/05/23 06:47:10;;;;;;;10.88;5.80;;;14.20;95.90;;;;;;5033619;28;20041;-42
2022/05/23 06:49:36;;;;;;;13.52;6.03;;;14.20;95.70;;;;;;5033634;28;20045;-40
2022/05/23 06:52:02;;;;;;;9.57;5.78;;;14.20;96.00;;;;;;5033905;28;20037;-45
2022/05/23 06:54:27;;;;;;;11.25;6.07;;;14.30;96.30;;;;;;5034077;28;20049;-41
2022/05/23 06:56:53;;;;;;;10.18;6.30;;;14.30;96.40;;;;;;5033006;28;20494;-51
2022/05/23 06:59:20;;;;;;;10.30;5.97;;;14.30;96.30;;;;;;5033377;28;20160;-43
2022/05/23 07:01:46;;;;;;;10.02;5.70;;;14.40;96.20;;;;;;5033283;28;20478;-48
2022/05/23 07:04:12;;;;;;;11.88;6.57;;;14.50;96.50;;;;;;5048116;28;20477;-49
2022/05/23 07:12:26;;;;;;;10.75;6.22;;;14.60;96.00;;;;;;5033880;28;20068;-44
2022/05/23 07:14:56;;;;;;;9.13;5.50;;;14.60;95.90;;;;;;5033695;28;20029;-48
2022/05/23 07:17:23;;;;;;;10.38;5.70;;;14.60;96.00;;;;;;5033294;28;20379;-51
2022/05/23 07:19:49;;;;;;;8.52;5.28;;;14.60;96.10;;;;;;5032430;28;20038;-42
2022/05/23 07:22:16;;;;;;;10.15;5.47;;;14.60;96.30;;;;;;5033329;28;20022;-42
2022/05/23 07:24:44;;;;;;;11.18;5.00;;;14.60;96.20;;;;;;5032705;28;20379;-52
2022/05/23 07:27:12;;;;;;;7.80;4.50;;;14.70;96.10;;;;;;5032861;28;20064;-51
2022/05/23 07:29:37;;;;;;;8.60;4.80;;;14.70;96.20;;;;;;5032764;28;20021;-49
2022/05/23 07:32:05;;;;;;;7.55;3.97;;;14.80;96.20;;;;;;5033062;28;20109;-51
2022/05/23 07:34:30;;;;;;;7.88;3.85;;;14.70;95.80;;;;;;5032912;28;20589;-39
2022/05/23 07:36:56;;;;;;;6.38;3.70;;;14.80;95.70;;;;;;5032948;28;20030;-45
2022/05/23 07:39:22;;;;;;;5.53;2.78;;;14.80;96.00;;;;;;5032533;28;20025;-48
2022/05/23 07:41:47;;;;;;;4.85;3.05;;;14.70;95.40;;;;;;5032050;28;20291;-41
2022/05/23 07:44:13;;;;;;;5.40;2.90;;;14.80;95.30;;;;;;5031036;28;20026;-58
2022/05/23 07:46:42;;;;;;;5.50;2.80;;;14.70;95.60;;;;;;5031005;28;20045;-47
2022/05/23 07:49:07;;;;;;;6.63;3.40;;;14.80;95.90;;;;;;5030833;28;20445;-56
2022/05/23 07:51:33;;;;;;;7.43;2.90;;;14.80;95.80;;;;;;5031420;28;20033;-42
2022/05/23 08:02:16;;;;;;;6.38;2.42;;;14.90;95.10;;;;;;5032620;28;20035;-50
2022/05/23 08:04:42;;;;;;;5.88;2.70;;;15.00;95.20;;;;;;5032595;28;20049;-46
2022/05/23 08:07:09;;;;;;;6.90;2.83;;;15.00;95.10;;;;;;5032595;28;20095;-52
2022/05/23 08:09:36;;;;;;;4.10;2.22;;;15.00;95.50;;;;;;5032579;28;20025;-51
2022/05/23 08:12:04;;;;;;;5.30;2.40;;;15.00;95.20;;;;;;5032374;28;20109;-49
2022/05/23 08:14:30;;;;;;;5.20;2.45;;;15.10;95.10;;;;;;5032357;28;20021;-46
2022/05/23 08:16:56;;;;;;;7.00;2.88;;;15.10;95.40;;;;;;5032235;28;20041;-47
2022/05/23 08:19:21;;;;;;;4.53;2.60;;;15.20;95.30;;;;;;5032260;28;20055;-53
2022/05/23 08:21:58;;;;;;;5.50;2.35;;;15.20;94.90;;;;;;5031965;28;20033;-42
2022/05/23 08:24:24;;;;;;;4.95;2.60;;;15.30;94.60;;;;;;5031863;28;20417;-48
2022/05/23 08:26:49;;;;;;;5.75;2.50;;;15.30;94.70;;;;;;5047370;28;20083;-46
2022/05/23 08:29:15;;;;;;;7.20;2.65;;;15.30;94.70;;;;;;5031859;28;20018;-41
2022/05/23 08:31:42;;;;;;;4.50;2.47;;;15.20;94.40;;;;;;5030697;28;20025;-54
2022/05/23 08:34:08;;;;;;;7.93;2.78;;;15.20;94.60;;;;;;5032010;28;20022;-47
2022/05/23 08:36:34;;;;;;;6.40;2.95;;;15.20;94.40;;;;;;5031874;28;20057;-47
2022/05/23 08:39:01;;;;;;;6.82;2.90;;;15.30;95.00;;;;;;5031764;28;20036;-40
2022/05/23 08:41:34;;;;;;;4.55;2.70;;;15.30;95.00;;;;;;5030437;28;20057;-39
2022/05/23 08:44:18;;;;;;;7.80;2.90;;;15.30;95.20;;;;;;5046234;28;20032;-39
2022/05/23 08:47:01;;;;;;;5.07;2.58;;;15.30;95.10;;;;;;5031048;28;20059;-45
2022/05/23 08:49:32;;;;;;;6.70;2.90;;;15.30;95.50;;;;;;5030194;28;20080;-49
2022/05/23 08:52:12;;;;;;;6.72;2.83;;;15.40;95.50;;;;;;5027847;28;20057;-44
2022/05/23 08:55:04;;;;;;;7.10;2.78;;;15.40;95.10;;;;;;5025916;28;20022;-49
2022/05/23 08:57:50;;;;;;;6.72;2.65;;;15.40;94.40;;;;;;5031586;28;20025;-49
2022/05/23 09:00:19;;;;;;;5.57;2.83;;;15.50;95.30;;;;;;5031526;28;20026;-41
2022/05/23 09:02:51;;;;;;;4.82;3.08;;;15.50;94.60;;;;;;5030206;28;20033;-40
2022/05/23 09:05:32;;;;;;;4.53;3.00;;;15.50;94.00;;;;;;5031345;28;20482;-56
2022/05/23 09:08:01;;;;;;;7.38;2.85;;;15.60;94.30;;;;;;5031246;28;20037;-42
2022/05/23 09:10:39;;;;;;;5.70;3.00;;;15.60;94.60;;;;;;5031175;28;20049;-49
2022/05/23 09:13:08;;;;;;;5.95;2.80;;;15.70;95.20;;;;;;5031229;28;20112;-52
2022/05/23 09:15:34;;;;;;;5.97;2.67;;;15.70;94.40;;;;;;5031362;28;20040;-57
2022/05/23 09:18:05;;;;;;;5.85;3.15;;;15.80;94.80;;;;;;5031112;28;20034;-50
2022/05/23 09:20:42;;;;;;;5.00;3.05;;;15.80;93.20;;;;;;5031346;28;20057;-46
2022/05/23 09:23:12;;;;;;;4.75;2.97;;;15.80;94.20;;;;;;5031158;28;20073;-50
2022/05/23 09:25:39;;;;;;;8.38;3.33;;;15.80;94.30;;;;;;5031121;28;20104;-49
2022/05/23 09:28:11;;;;;;;8.00;3.88;;;15.80;93.70;;;;;;5031031;28;20087;-48
2022/05/23 09:30:39;;;;;;;7.65;3.65;;;15.90;95.00;;;;;;5031123;28;20494;-38
2022/05/23 09:33:14;;;;;;;5.47;3.40;;;16.00;94.60;;;;;;5031176;28;20056;-51
2022/05/23 09:35:42;;;;;;;5.55;3.35;;;16.00;94.80;;;;;;5031038;28;20029;-50
2022/05/23 09:38:11;;;;;;;6.55;3.25;;;16.00;93.70;;;;;;5029498;28;20029;-47
2022/05/23 09:40:38;;;;;;;6.87;3.63;;;16.00;94.20;;;;;;5031068;28;20387;-44
2022/05/23 09:49:14;;;;;;;;;;;16.00;93.50;;;;;;5019490;28;20057;-44
2022/05/23 09:51:55;;;;;;;6.87;3.10;;;16.00;93.40;;;;;;5037409;28;19909;-39
2022/05/23 09:54:26;;;;;;;7.60;3.53;;;15.90;93.60;;;;;;5037410;28;20104;-40
2022/05/23 09:56:52;;;;;;;6.85;3.63;;;15.80;94.70;;;;;;5037346;28;20521;-39
2022/05/23 09:59:33;;;;;;;7.32;3.25;;;15.80;93.70;;;;;;5037454;28;20474;-37
2022/05/23 10:02:17;;;;;;;7.88;3.70;;;15.60;93.90;;;;;;5037307;28;20478;-40
2022/05/23 10:04:45;;;;;;;6.63;3.47;;;15.70;94.80;;;;;;5037362;28;20025;-44
2022/05/23 10:07:23;;;;;;;11.27;3.00;;;15.70;94.90;;;;;;5030800;28;20030;-42
2022/05/23 10:10:01;;;;;;;7.07;3.30;;;15.90;95.80;;;;;;5020004;28;20018;-43
2022/05/23 10:12:28;;;;;;;6.80;3.30;;;15.90;95.50;;;;;;5022639;28;20025;-43
2022/05/23 10:15:12;;;;;;;6.70;3.33;;;16.00;95.60;;;;;;5037040;28;20021;-44
2022/05/23 10:17:41;;;;;;;7.45;3.70;;;16.10;95.40;;;;;;5036668;28;20494;-48
2022/05/23 10:20:29;;;;;;;5.90;3.83;;;16.10;95.40;;;;;;5023396;28;20022;-44
2022/05/23 10:23:04;;;;;;;6.83;4.13;;;16.10;94.70;;;;;;5017423;28;20022;-39
2022/05/23 10:25:41;;;;;;;7.45;4.53;;;16.10;94.40;;;;;;5017427;28;20276;-44
2022/05/23 10:28:15;;;;;;;7.45;4.90;;;16.10;95.10;;;;;;5017231;28;20061;-45
2022/05/23 10:30:55;;;;;;;8.75;6.05;;;16.10;95.10;;;;;;5017370;28;20024;-42
2022/05/23 10:33:27;;;;;;;9.00;6.45;;;16.20;95.50;;;;;;5017297;28;20482;-47
2022/05/23 10:36:03;;;;;;;10.85;6.25;;;16.20;94.80;;;;;;5033336;28;20068;-49
2022/05/23 10:42:15;;;;;;;10.13;6.75;;;16.20;95.20;;;;;;5037062;28;20508;-42
2022/05/23 10:44:55;;;;;;;11.07;5.55;;;16.10;94.90;;;;;;5037016;28;20052;-50
2022/05/23 10:47:34;;;;;;;8.95;5.20;;;16.10;94.90;;;;;;5036883;28;20350;-45
2022/05/23 10:50:35;;;;;;;10.85;5.10;;;16.10;94.80;;;;;;5036883;28;20100;-47
2022/05/23 10:53:12;;;;;;;;;;;16.10;94.90;;;;;;5037504;28;20057;-48
2022/05/23 10:55:58;;;;;;;8.75;5.03;;;16.10;95.20;;;;;;5033141;28;19912;-49
2022/05/23 10:58:42;;;;;;;8.75;5.28;;;16.10;94.40;;;;;;5034015;28;20045;-41
2022/05/23 11:01:30;;;;;;;15.68;5.05;;;16.10;94.90;;;;;;5033863;28;20033;-45
2022/05/23 11:04:01;;;;;;;10.40;5.85;;;16.10;94.80;;;;;;5013764;28;20056;-41
2022/05/23 11:07:02;;;;;;;10.23;5.70;;;16.10;95.00;;;;;;5033243;28;20500;-45
2022/05/23 11:09:42;;;;;;;10.80;6.20;;;16.10;94.60;;;;;;5033616;28;20048;-49
2022/05/23 11:12:40;;;;;;;9.82;6.00;;;16.10;94.90;;;;;;5033485;28;20108;-48
2022/05/23 11:15:28;;;;;;;10.35;6.38;;;16.10;95.40;;;;;;5030694;28;20040;-45
2022/05/23 11:18:12;;;;;;;8.10;6.00;;;16.10;94.80;;;;;;5033289;28;20453;-48
2022/05/23 11:20:40;;;;;;;11.68;6.05;;;16.10;94.70;;;;;;5032275;28;20161;-40
2022/05/23 11:23:24;;;;;;;9.80;6.75;;;16.20;95.30;;;;;;5033641;28;20029;-44
2022/05/23 11:25:56;;;;;;;11.18;6.97;;;16.10;95.30;;;;;;5033417;28;20030;-44
2022/05/23 11:34:30;;;;;;;10.32;6.30;;;16.20;95.20;;;;;;5031682;28;20107;-48
2022/05/23 11:37:08;;;;;;;12.20;6.90;;;16.20;94.70;;;;;;5033000;28;20398;-52
2022/05/23 11:39:49;;;;;;;9.02;6.38;;;16.30;94.90;;;;;;5033008;28;20034;-41
2022/05/23 11:42:32;;;;;;;10.05;6.55;;;16.30;94.90;;;;;;5033050;28;20025;-51
2022/05/23 11:45:57;;;;;;;13.57;7.82;;;16.30;94.40;;;;;;5032917;28;20025;-46
2022/05/23 11:47:56;;;;;;;10.98;6.78;;;16.30;94.80;;;;;;5021543;28;20026;-54
2022/05/23 11:50:34;;;;;;;14.77;5.93;;;16.30;94.60;;;;;;5012903;28;20042;-42
2022/05/23 11:53:11;;;;;;;10.13;6.68;;;16.20;94.20;;;;;;5013118;28;20044;-42
2022/05/23 11:55:54;;;;;;;7.25;5.68;;;16.20;94.10;;;;;;5031467;28;20017;-40
2022/05/23 11:58:50;;;;;;;9.05;5.57;;;16.10;94.40;;;;;;5032193;28;20033;-45
2022/05/23 12:01:24;;;;;;;10.05;6.50;;;16.00;94.80;;;;;;5035025;28;20032;-40
2022/05/23 12:03:54;;;;;;;13.23;7.18;;;16.00;94.70;;;;;;5047835;28;20033;-53
2022/05/23 12:06:41;;;;;;;12.63;7.60;;;16.00;95.30;;;;;;5032037;28;20021;-51
2022/05/23 12:09:13;;;;;;;11.60;7.75;;;15.90;95.80;;;;;;5032745;28;20045;-52
2022/05/23 12:11:41;;;;;;;13.25;7.45;;;16.00;96.30;;;;;;5032465;28;20101;-46
2022/05/23 12:14:43;;;;;;;10.93;6.25;;;16.10;95.80;;;;;;5032341;28;20034;-49
2022/05/23 12:17:11;;;;;;;11.18;6.35;;;16.20;95.60;;;;;;5031869;28;20421;-46
2022/05/23 12:19:40;;;;;;;10.82;6.30;;;16.40;96.10;;;;;;5032296;28;20037;-49
2022/05/23 12:22:26;;;;;;;10.50;6.23;;;16.50;95.60;;;;;;5032347;28;20075;-55
2022/05/23 12:24:55;;;;;;;9.93;6.03;;;16.60;95.30;;;;;;5032284;28;20025;-50
2022/05/23 12:27:29;;;;;;;10.63;5.93;;;16.60;94.50;;;;;;5031878;28;20030;-48
2022/05/23 12:30:23;;;;;;;9.55;5.97;;;16.60;94.70;;;;;;5032367;28;20024;-45
2022/05/23 12:32:57;;;;;;;9.88;5.43;;;16.50;94.20;;;;;;5032192;28;20072;-56
2022/05/23 12:35:48;;;;;;;9.32;5.80;;;16.50;94.90;;;;;;5032034;28;20021;-52
2022/05/23 12:38:22;;;;;;;8.45;5.60;;;16.30;94.30;;;;;;5031941;28;20036;-47
2022/05/23 12:40:57;;;;;;;9.75;5.90;;;16.30;95.10;;;;;;5031846;28;20390;-46
2022/05/23 12:43:49;;;;;;;9.52;5.88;;;16.30;94.90;;;;;;5031746;28;20021;-58
2022/05/23 12:46:45;;;;;;;11.40;6.03;;;16.20;95.10;;;;;;5022431;28;20112;-46
2022/05/23 12:49:42;;;;;;;14.20;7.63;;;16.00;94.90;;;;;;5030146;28;20489;-47
2022/05/23 12:52:23;;;;;;;13.10;6.97;;;16.00;95.30;;;;;;4988607;28;20396;-46
2022/05/23 12:55:21;;;;;;;10.30;6.40;;;16.00;95.60;;;;;;4999088;28;20051;-46
2022/05/23 12:58:08;;;;;;;11.93;7.40;;;16.00;95.70;;;;;;5022478;28;20064;-46
2022/05/23 13:00:42;;;;;;;11.75;6.45;;;16.20;96.30;;;;;;5031859;28;20018;-52
2022/05/23 13:03:17;;;;;;;13.00;6.15;;;16.30;96.00;;;;;;5031521;28;20427;-52
2022/05/23 13:05:59;;;;;;;8.80;5.63;;;16.40;95.20;;;;;;5031498;28;20474;-43
2022/05/23 13:08:38;;;;;;;11.98;5.47;;;16.50;95.10;;;;;;5031456;28;20033;-39
2022/05/23 13:11:10;;;;;;;13.50;5.63;;;16.50;94.70;;;;;;5031370;28;20064;-38
2022/05/23 13:13:41;;;;;;;12.50;5.60;;;16.40;94.40;;;;;;5031671;28;20131;-41
2022/05/23 13:16:24;;;;;;;8.90;4.75;;;16.40;93.50;;;;;;5031387;28;20033;-41
2022/05/23 13:27:09;;;;;;;12.38;5.20;;;16.20;95.40;;;;;;5031209;28;20532;-47
2022/05/23 13:29:36;;;;;;;9.98;5.40;;;16.20;93.90;;;;;;5046391;28;20466;-46
2022/05/23 13:32:07;;;;;;;10.27;5.80;;;16.00;94.50;;;;;;5031163;28;20033;-46
2022/05/23 13:34:37;;;;;;;9.13;5.13;;;15.90;94.50;;;;;;5031111;28;20037;-56
2022/05/23 13:37:06;;;;;;;9.27;5.05;;;15.80;94.30;;;;;;5031231;28;20025;-54
2022/05/23 13:39:32;;;;;;;10.13;5.18;;;15.60;94.30;;;;;;5031176;28;20030;-51
2022/05/23 13:42:16;;;;;;;10.43;5.93;;;15.50;94.70;;;;;;5031168;28;20051;-49
2022/05/23 13:44:41;;;;;;;10.23;5.22;;;15.30;94.80;;;;;;5031269;28;20087;-47
2022/05/23 13:47:11;;;;;;;11.43;5.00;;;15.40;95.70;;;;;;5031048;28;20401;-45
2022/05/23 13:49:48;;;;;;;8.57;4.30;;;15.30;95.40;;;;;;5030408;28;20054;-40
2022/05/23 13:52:30;;;;;;;5.75;3.33;;;15.40;95.60;;;;;;5030149;28;20029;-41
2022/05/23 13:55:14;;;;;;;8.65;3.40;;;15.30;95.10;;;;;;5030440;28;20018;-38
2022/05/23 13:57:47;;;;;;;8.70;3.65;;;15.40;95.30;;;;;;5031022;28;20107;-48
2022/05/23 14:00:15;;;;;;;7.38;3.78;;;15.60;95.60;;;;;;5030839;28;20021;-44
2022/05/23 14:02:53;;;;;;;8.38;4.00;;;15.70;95.30;;;;;;5030872;28;20389;-51
2022/05/23 14:05:20;;;;;;;6.68;3.47;;;15.80;95.30;;;;;;5028900;28;20104;-46
2022/05/23 14:07:47;;;;;;;6.80;3.22;;;15.90;95.30;;;;;;5031199;28;20048;-44